sensor_id;sensor_type;location;lat;lon;timestamp;P1;durP1;ratioP1;P2;durP2;ratioP2
20623;SDS011;10471;42.736;23.346;2023-08-06T00:00:27;9.37;;;5.83;;
20623;SDS011;10471;42.736;23.346;2023-08-06T00:02:52;11.63;;;6.07;;
20623;SDS011;10471;42.736;23.346;2023-08-06T00:05:18;13.47;;;7.03;;
20623;SDS011;10471;42.736;23.346;2023-08-06T00:07:45;12.30;;;7.10;;
20623;SDS011;10471;42.736;23.346;2023-08-06T00:10:11;8.80;;;6.37;;
20623;SDS011;10471;42.736;23.346;2023-08-06T00:12:37;9.60;;;6.77;;
20623;SDS011;10471;42.736;23.346;2023-08-06T00:15:02;9.80;;;6.50;;
20623;SDS011;10471;42.736;23.346;2023-08-06T00:17:28;10.73;;;6.57;;
20623;SDS011;10471;42.736;23.346;2023-08-06T00:19:53;8.23;;;6.43;;
20623;SDS011;10471;42.736;23.346;2023-08-06T00:22:19;8.07;;;5.70;;
20623;SDS011;10471;42.736;23.346;2023-08-06T00:24:44;10.00;;;6.17;;
20623;SDS011;10471;42.736;23.346;2023-08-06T00:27:09;10.43;;;6.97;;
20623;SDS011;10471;42.736;23.346;2023-08-06T00:29:35;10.83;;;6.57;;
20623;SDS011;10471;42.736;23.346;2023-08-06T00:32:00;10.33;;;7.17;;
20623;SDS011;10471;42.736;23.346;2023-08-06T00:34:26;9.07;;;6.67;;
20623;SDS011;10471;42.736;23.346;2023-08-06T00:36:51;11.57;;;6.73;;
20623;SDS011;10471;42.736;23.346;2023-08-06T00:39:18;9.53;;;6.70;;
20623;SDS011;10471;42.736;23.346;2023-08-06T00:41:43;10.53;;;6.57;;
20623;SDS011;10471;42.736;23.346;2023-08-06T00:44:09;11.70;;;7.00;;
20623;SDS011;10471;42.736;23.346;2023-08-06T00:46:34;8.97;;;6.77;;
20623;SDS011;10471;42.736;23.346;2023-08-06T00:48:59;13.37;;;6.93;;
20623;SDS011;10471;42.736;23.346;2023-08-06T00:51:25;9.40;;;6.77;;
20623;SDS011;10471;42.736;23.346;2023-08-06T00:53:51;9.50;;;6.60;;
20623;SDS011;10471;42.736;23.346;2023-08-06T00:56:17;11.97;;;8.03;;
20623;SDS011;10471;42.736;23.346;2023-08-06T00:58:43;10.00;;;7.50;;
20623;SDS011;10471;42.736;23.346;2023-08-06T01:01:09;13.80;;;6.90;;
20623;SDS011;10471;42.736;23.346;2023-08-06T01:03:35;9.90;;;7.33;;
20623;SDS011;10471;42.736;23.346;2023-08-06T01:06:01;11.37;;;7.90;;
20623;SDS011;10471;42.736;23.346;2023-08-06T01:14:06;10.87;;;7.37;;
20623;SDS011;10471;42.736;23.346;2023-08-06T01:16:47;9.63;;;6.57;;
20623;SDS011;10471;42.736;23.346;2023-08-06T01:19:16;9.60;;;7.13;;
20623;SDS011;10471;42.736;23.346;2023-08-06T01:21:42;9.77;;;7.20;;
20623;SDS011;10471;42.736;23.346;2023-08-06T01:24:08;8.87;;;6.73;;
20623;SDS011;10471;42.736;23.346;2023-08-06T01:26:35;9.03;;;7.13;;
20623;SDS011;10471;42.736;23.346;2023-08-06T01:31:43;9.53;;;7.23;;
20623;SDS011;10471;42.736;23.346;2023-08-06T01:34:10;10.50;;;7.53;;
20623;SDS011;10471;42.736;23.346;2023-08-06T01:36:48;11.30;;;8.00;;
20623;SDS011;10471;42.736;23.346;2023-08-06T01:39:15;12.13;;;8.50;;
20623;SDS011;10471;42.736;23.346;2023-08-06T01:41:40;18.00;;;7.77;;
20623;SDS011;10471;42.736;23.346;2023-08-06T01:44:06;11.77;;;7.90;;
20623;SDS011;10471;42.736;23.346;2023-08-06T01:46:31;11.60;;;7.83;;
20623;SDS011;10471;42.736;23.346;2023-08-06T01:48:57;9.40;;;7.57;;
20623;SDS011;10471;42.736;23.346;2023-08-06T01:51:22;10.07;;;7.30;;
20623;SDS011;10471;42.736;23.346;2023-08-06T01:53:47;11.20;;;7.70;;
20623;SDS011;10471;42.736;23.346;2023-08-06T01:56:13;9.73;;;7.90;;
20623;SDS011;10471;42.736;23.346;2023-08-06T01:58:38;8.30;;;7.47;;
20623;SDS011;10471;42.736;23.346;2023-08-06T02:01:04;11.20;;;7.90;;
20623;SDS011;10471;42.736;23.346;2023-08-06T02:03:29;9.77;;;7.57;;
20623;SDS011;10471;42.736;23.346;2023-08-06T02:05:54;9.33;;;7.37;;
20623;SDS011;10471;42.736;23.346;2023-08-06T02:08:20;8.87;;;7.40;;
20623;SDS011;10471;42.736;23.346;2023-08-06T02:10:45;10.93;;;7.70;;
20623;SDS011;10471;42.736;23.346;2023-08-06T02:13:11;9.97;;;8.07;;
20623;SDS011;10471;42.736;23.346;2023-08-06T02:15:41;9.00;;;7.47;;
20623;SDS011;10471;42.736;23.346;2023-08-06T02:18:08;9.20;;;7.40;;
20623;SDS011;10471;42.736;23.346;2023-08-06T02:20:33;9.57;;;7.47;;
20623;SDS011;10471;42.736;23.346;2023-08-06T02:23:01;12.70;;;7.97;;
20623;SDS011;10471;42.736;23.346;2023-08-06T02:25:26;10.07;;;7.80;;
20623;SDS011;10471;42.736;23.346;2023-08-06T02:27:51;11.13;;;8.23;;
20623;SDS011;10471;42.736;23.346;2023-08-06T02:30:17;12.47;;;7.90;;
20623;SDS011;10471;42.736;23.346;2023-08-06T02:32:42;10.60;;;7.37;;
20623;SDS011;10471;42.736;23.346;2023-08-06T02:35:08;12.43;;;8.37;;
20623;SDS011;10471;42.736;23.346;2023-08-06T02:37:34;13.47;;;9.73;;
20623;SDS011;10471;42.736;23.346;2023-08-06T02:39:59;18.17;;;8.67;;
20623;SDS011;10471;42.736;23.346;2023-08-06T02:42:25;15.87;;;8.57;;
20623;SDS011;10471;42.736;23.346;2023-08-06T02:44:51;13.30;;;9.13;;
20623;SDS011;10471;42.736;23.346;2023-08-06T02:47:17;18.47;;;10.37;;
20623;SDS011;10471;42.736;23.346;2023-08-06T02:49:43;14.93;;;9.57;;
20623;SDS011;10471;42.736;23.346;2023-08-06T02:52:08;13.30;;;9.60;;
20623;SDS011;10471;42.736;23.346;2023-08-06T02:54:34;14.63;;;9.87;;
20623;SDS011;10471;42.736;23.346;2023-08-06T02:56:59;13.23;;;9.97;;
20623;SDS011;10471;42.736;23.346;2023-08-06T02:59:24;15.87;;;9.63;;
20623;SDS011;10471;42.736;23.346;2023-08-06T03:01:50;12.93;;;9.70;;
20623;SDS011;10471;42.736;23.346;2023-08-06T03:04:15;16.13;;;9.70;;
20623;SDS011;10471;42.736;23.346;2023-08-06T03:06:42;15.77;;;9.53;;
20623;SDS011;10471;42.736;23.346;2023-08-06T03:09:08;18.53;;;9.93;;
20623;SDS011;10471;42.736;23.346;2023-08-06T03:11:33;14.20;;;9.40;;
20623;SDS011;10471;42.736;23.346;2023-08-06T03:13:58;13.20;;;9.27;;
20623;SDS011;10471;42.736;23.346;2023-08-06T03:16:24;14.27;;;9.63;;
20623;SDS011;10471;42.736;23.346;2023-08-06T03:18:49;15.70;;;9.70;;
20623;SDS011;10471;42.736;23.346;2023-08-06T03:21:15;15.53;;;8.90;;
20623;SDS011;10471;42.736;23.346;2023-08-06T03:23:40;15.80;;;10.57;;
20623;SDS011;10471;42.736;23.346;2023-08-06T03:26:05;15.30;;;10.57;;
20623;SDS011;10471;42.736;23.346;2023-08-06T03:28:31;16.97;;;11.10;;
20623;SDS011;10471;42.736;23.346;2023-08-06T03:31:02;14.90;;;10.20;;
20623;SDS011;10471;42.736;23.346;2023-08-06T03:33:28;16.43;;;10.47;;
20623;SDS011;10471;42.736;23.346;2023-08-06T03:35:53;17.70;;;10.47;;
20623;SDS011;10471;42.736;23.346;2023-08-06T03:38:19;14.73;;;10.20;;
20623;SDS011;10471;42.736;23.346;2023-08-06T03:40:45;15.50;;;10.53;;
20623;SDS011;10471;42.736;23.346;2023-08-06T03:43:11;15.23;;;10.80;;
20623;SDS011;10471;42.736;23.346;2023-08-06T03:45:36;19.93;;;11.47;;
20623;SDS011;10471;42.736;23.346;2023-08-06T03:48:02;15.10;;;10.30;;
20623;SDS011;10471;42.736;23.346;2023-08-06T03:50:27;14.33;;;10.83;;
20623;SDS011;10471;42.736;23.346;2023-08-06T03:52:53;17.43;;;10.37;;
20623;SDS011;10471;42.736;23.346;2023-08-06T03:55:18;14.50;;;10.63;;
20623;SDS011;10471;42.736;23.346;2023-08-06T03:57:43;17.03;;;11.63;;
20623;SDS011;10471;42.736;23.346;2023-08-06T04:00:09;16.43;;;12.20;;
20623;SDS011;10471;42.736;23.346;2023-08-06T04:02:34;17.77;;;11.80;;
20623;SDS011;10471;42.736;23.346;2023-08-06T04:05:00;20.13;;;17.80;;
20623;SDS011;10471;42.736;23.346;2023-08-06T04:07:26;16.70;;;14.90;;
20623;SDS011;10471;42.736;23.346;2023-08-06T04:09:55;17.20;;;14.57;;
20623;SDS011;10471;42.736;23.346;2023-08-06T04:12:23;17.57;;;15.20;;
20623;SDS011;10471;42.736;23.346;2023-08-06T04:14:49;17.00;;;15.17;;
20623;SDS011;10471;42.736;23.346;2023-08-06T04:17:16;17.40;;;15.07;;
20623;SDS011;10471;42.736;23.346;2023-08-06T04:19:42;17.50;;;14.30;;
20623;SDS011;10471;42.736;23.346;2023-08-06T04:22:07;14.77;;;12.53;;
20623;SDS011;10471;42.736;23.346;2023-08-06T04:24:32;13.43;;;11.97;;
20623;SDS011;10471;42.736;23.346;2023-08-06T04:26:58;11.90;;;9.43;;
20623;SDS011;10471;42.736;23.346;2023-08-06T04:29:23;13.07;;;9.90;;
20623;SDS011;10471;42.736;23.346;2023-08-06T04:31:49;13.53;;;10.43;;
20623;SDS011;10471;42.736;23.346;2023-08-06T04:34:14;13.50;;;10.03;;
20623;SDS011;10471;42.736;23.346;2023-08-06T04:36:39;10.53;;;8.53;;
20623;SDS011;10471;42.736;23.346;2023-08-06T04:39:05;11.57;;;9.57;;
20623;SDS011;10471;42.736;23.346;2023-08-06T04:41:30;12.37;;;10.30;;
20623;SDS011;10471;42.736;23.346;2023-08-06T04:43:56;14.23;;;10.93;;
20623;SDS011;10471;42.736;23.346;2023-08-06T04:46:22;12.97;;;10.33;;
20623;SDS011;10471;42.736;23.346;2023-08-06T04:48:47;12.27;;;9.43;;
20623;SDS011;10471;42.736;23.346;2023-08-06T04:51:12;13.43;;;9.53;;
20623;SDS011;10471;42.736;23.346;2023-08-06T04:53:38;11.53;;;8.27;;
20623;SDS011;10471;42.736;23.346;2023-08-06T04:56:03;11.63;;;8.40;;
20623;SDS011;10471;42.736;23.346;2023-08-06T04:58:29;9.27;;;7.17;;
20623;SDS011;10471;42.736;23.346;2023-08-06T05:00:54;10.03;;;7.93;;
20623;SDS011;10471;42.736;23.346;2023-08-06T05:03:20;8.57;;;6.60;;
20623;SDS011;10471;42.736;23.346;2023-08-06T05:05:45;9.47;;;6.40;;
20623;SDS011;10471;42.736;23.346;2023-08-06T05:08:14;9.43;;;6.80;;
20623;SDS011;10471;42.736;23.346;2023-08-06T05:10:44;10.57;;;6.90;;
20623;SDS011;10471;42.736;23.346;2023-08-06T05:13:09;7.90;;;7.10;;
20623;SDS011;10471;42.736;23.346;2023-08-06T05:15:35;8.97;;;5.70;;
20623;SDS011;10471;42.736;23.346;2023-08-06T05:18:00;10.03;;;6.80;;
20623;SDS011;10471;42.736;23.346;2023-08-06T05:20:27;7.60;;;6.30;;
20623;SDS011;10471;42.736;23.346;2023-08-06T05:22:53;6.33;;;5.70;;
20623;SDS011;10471;42.736;23.346;2023-08-06T05:25:20;7.10;;;5.60;;
20623;SDS011;10471;42.736;23.346;2023-08-06T05:27:45;6.27;;;5.50;;
20623;SDS011;10471;42.736;23.346;2023-08-06T05:30:11;8.23;;;6.33;;
20623;SDS011;10471;42.736;23.346;2023-08-06T05:32:36;6.97;;;6.27;;
20623;SDS011;10471;42.736;23.346;2023-08-06T05:35:01;7.03;;;6.33;;
20623;SDS011;10471;42.736;23.346;2023-08-06T05:37:28;8.50;;;6.37;;
20623;SDS011;10471;42.736;23.346;2023-08-06T05:39:53;7.73;;;6.80;;
20623;SDS011;10471;42.736;23.346;2023-08-06T05:42:18;7.93;;;6.53;;
20623;SDS011;10471;42.736;23.346;2023-08-06T05:44:44;7.37;;;6.57;;
20623;SDS011;10471;42.736;23.346;2023-08-06T05:47:09;6.93;;;6.23;;
20623;SDS011;10471;42.736;23.346;2023-08-06T05:49:34;6.10;;;5.50;;
20623;SDS011;10471;42.736;23.346;2023-08-06T05:52:00;7.30;;;5.73;;
20623;SDS011;10471;42.736;23.346;2023-08-06T05:54:25;5.57;;;5.03;;
20623;SDS011;10471;42.736;23.346;2023-08-06T05:56:50;5.47;;;4.93;;
20623;SDS011;10471;42.736;23.346;2023-08-06T05:59:16;5.87;;;4.87;;
20623;SDS011;10471;42.736;23.346;2023-08-06T06:01:41;7.27;;;5.03;;
20623;SDS011;10471;42.736;23.346;2023-08-06T06:04:07;5.63;;;5.03;;
20623;SDS011;10471;42.736;23.346;2023-08-06T06:06:32;5.33;;;4.83;;
20623;SDS011;10471;42.736;23.346;2023-08-06T06:08:57;6.17;;;3.70;;
20623;SDS011;10471;42.736;23.346;2023-08-06T06:11:23;4.30;;;3.77;;
20623;SDS011;10471;42.736;23.346;2023-08-06T06:13:51;5.13;;;3.63;;
20623;SDS011;10471;42.736;23.346;2023-08-06T06:16:17;4.87;;;3.50;;
20623;SDS011;10471;42.736;23.346;2023-08-06T06:18:42;3.67;;;3.27;;
20623;SDS011;10471;42.736;23.346;2023-08-06T06:21:09;4.77;;;3.40;;
20623;SDS011;10471;42.736;23.346;2023-08-06T06:23:35;3.50;;;2.60;;
20623;SDS011;10471;42.736;23.346;2023-08-06T06:26:00;3.77;;;2.43;;
20623;SDS011;10471;42.736;23.346;2023-08-06T06:28:25;4.10;;;2.40;;
20623;SDS011;10471;42.736;23.346;2023-08-06T06:30:51;3.00;;;2.70;;
20623;SDS011;10471;42.736;23.346;2023-08-06T06:33:16;6.67;;;3.30;;
20623;SDS011;10471;42.736;23.346;2023-08-06T06:35:42;3.10;;;2.80;;
20623;SDS011;10471;42.736;23.346;2023-08-06T06:38:07;2.53;;;2.10;;
20623;SDS011;10471;42.736;23.346;2023-08-06T06:40:33;2.40;;;2.20;;
20623;SDS011;10471;42.736;23.346;2023-08-06T06:42:58;2.90;;;2.60;;
20623;SDS011;10471;42.736;23.346;2023-08-06T06:45:23;4.47;;;2.87;;
20623;SDS011;10471;42.736;23.346;2023-08-06T06:47:49;3.30;;;2.90;;
20623;SDS011;10471;42.736;23.346;2023-08-06T06:50:14;3.63;;;2.33;;
20623;SDS011;10471;42.736;23.346;2023-08-06T06:52:40;2.30;;;2.10;;
20623;SDS011;10471;42.736;23.346;2023-08-06T06:55:06;3.50;;;2.17;;
20623;SDS011;10471;42.736;23.346;2023-08-06T06:57:32;3.20;;;2.33;;
20623;SDS011;10471;42.736;23.346;2023-08-06T06:59:57;3.77;;;2.00;;
20623;SDS011;10471;42.736;23.346;2023-08-06T07:02:22;3.73;;;2.40;;
20623;SDS011;10471;42.736;23.346;2023-08-06T07:04:48;4.53;;;2.50;;
20623;SDS011;10471;42.736;23.346;2023-08-06T07:07:14;2.70;;;2.13;;
20623;SDS011;10471;42.736;23.346;2023-08-06T07:09:40;3.57;;;2.50;;
20623;SDS011;10471;42.736;23.346;2023-08-06T07:12:05;4.17;;;2.53;;
20623;SDS011;10471;42.736;23.346;2023-08-06T07:14:31;2.73;;;2.33;;
20623;SDS011;10471;42.736;23.346;2023-08-06T07:16:57;3.50;;;2.40;;
20623;SDS011;10471;42.736;23.346;2023-08-06T07:19:23;2.40;;;2.20;;
20623;SDS011;10471;42.736;23.346;2023-08-06T07:21:48;2.43;;;2.23;;
20623;SDS011;10471;42.736;23.346;2023-08-06T07:24:13;2.43;;;2.20;;
20623;SDS011;10471;42.736;23.346;2023-08-06T07:26:39;4.13;;;2.43;;
20623;SDS011;10471;42.736;23.346;2023-08-06T07:29:04;3.40;;;2.47;;
20623;SDS011;10471;42.736;23.346;2023-08-06T07:31:30;3.20;;;2.70;;
20623;SDS011;10471;42.736;23.346;2023-08-06T07:33:55;4.67;;;2.93;;
20623;SDS011;10471;42.736;23.346;2023-08-06T07:36:20;4.13;;;3.00;;
20623;SDS011;10471;42.736;23.346;2023-08-06T07:38:46;3.93;;;3.27;;
20623;SDS011;10471;42.736;23.346;2023-08-06T07:41:13;3.67;;;3.37;;
20623;SDS011;10471;42.736;23.346;2023-08-06T07:43:39;4.60;;;3.10;;
20623;SDS011;10471;42.736;23.346;2023-08-06T07:46:04;3.80;;;3.30;;
20623;SDS011;10471;42.736;23.346;2023-08-06T07:48:30;5.80;;;3.50;;
20623;SDS011;10471;42.736;23.346;2023-08-06T07:50:56;5.23;;;3.60;;
20623;SDS011;10471;42.736;23.346;2023-08-06T07:53:22;4.57;;;3.53;;
20623;SDS011;10471;42.736;23.346;2023-08-06T07:55:52;5.23;;;3.90;;
20623;SDS011;10471;42.736;23.346;2023-08-06T07:58:19;5.47;;;3.40;;
20623;SDS011;10471;42.736;23.346;2023-08-06T08:00:45;5.33;;;4.00;;
20623;SDS011;10471;42.736;23.346;2023-08-06T08:03:13;4.20;;;3.80;;
20623;SDS011;10471;42.736;23.346;2023-08-06T08:05:40;6.00;;;4.33;;
20623;SDS011;10471;42.736;23.346;2023-08-06T08:08:06;4.03;;;3.63;;
20623;SDS011;10471;42.736;23.346;2023-08-06T08:10:32;3.70;;;3.40;;
20623;SDS011;10471;42.736;23.346;2023-08-06T08:12:58;5.90;;;3.53;;
20623;SDS011;10471;42.736;23.346;2023-08-06T08:15:24;4.17;;;3.77;;
20623;SDS011;10471;42.736;23.346;2023-08-06T08:17:51;5.03;;;3.30;;
20623;SDS011;10471;42.736;23.346;2023-08-06T08:20:17;5.27;;;3.47;;
20623;SDS011;10471;42.736;23.346;2023-08-06T08:22:43;4.40;;;4.00;;
20623;SDS011;10471;42.736;23.346;2023-08-06T08:25:08;3.97;;;3.27;;
20623;SDS011;10471;42.736;23.346;2023-08-06T08:27:33;5.37;;;3.93;;
20623;SDS011;10471;42.736;23.346;2023-08-06T08:29:59;5.80;;;4.00;;
20623;SDS011;10471;42.736;23.346;2023-08-06T08:32:24;3.70;;;3.23;;
20623;SDS011;10471;42.736;23.346;2023-08-06T08:34:50;5.83;;;3.83;;
20623;SDS011;10471;42.736;23.346;2023-08-06T08:37:15;4.13;;;3.73;;
20623;SDS011;10471;42.736;23.346;2023-08-06T08:39:40;4.40;;;3.17;;
20623;SDS011;10471;42.736;23.346;2023-08-06T08:42:06;5.30;;;3.30;;
20623;SDS011;10471;42.736;23.346;2023-08-06T08:44:32;4.17;;;3.30;;
20623;SDS011;10471;42.736;23.346;2023-08-06T08:46:59;4.13;;;3.33;;
20623;SDS011;10471;42.736;23.346;2023-08-06T08:49:24;5.20;;;3.80;;
20623;SDS011;10471;42.736;23.346;2023-08-06T08:51:52;4.97;;;3.30;;
20623;SDS011;10471;42.736;23.346;2023-08-06T08:54:20;6.00;;;3.97;;
20623;SDS011;10471;42.736;23.346;2023-08-06T08:56:48;4.93;;;3.47;;
20623;SDS011;10471;42.736;23.346;2023-08-06T08:59:13;5.13;;;3.40;;
20623;SDS011;10471;42.736;23.346;2023-08-06T09:01:39;4.37;;;3.43;;
20623;SDS011;10471;42.736;23.346;2023-08-06T09:04:07;4.63;;;3.43;;
20623;SDS011;10471;42.736;23.346;2023-08-06T09:06:35;5.43;;;3.50;;
20623;SDS011;10471;42.736;23.346;2023-08-06T09:09:12;6.97;;;3.70;;
20623;SDS011;10471;42.736;23.346;2023-08-06T09:11:45;4.13;;;3.30;;
20623;SDS011;10471;42.736;23.346;2023-08-06T09:14:13;7.67;;;3.83;;
20623;SDS011;10471;42.736;23.346;2023-08-06T09:16:38;4.57;;;3.60;;
20623;SDS011;10471;42.736;23.346;2023-08-06T09:19:13;7.70;;;3.83;;
20623;SDS011;10471;42.736;23.346;2023-08-06T09:21:40;3.60;;;3.30;;
20623;SDS011;10471;42.736;23.346;2023-08-06T09:24:10;5.80;;;3.37;;
20623;SDS011;10471;42.736;23.346;2023-08-06T09:26:37;5.03;;;3.43;;
20623;SDS011;10471;42.736;23.346;2023-08-06T09:29:06;3.50;;;3.00;;
20623;SDS011;10471;42.736;23.346;2023-08-06T09:31:54;3.63;;;3.17;;
20623;SDS011;10471;42.736;23.346;2023-08-06T09:36:47;3.50;;;3.20;;
20623;SDS011;10471;42.736;23.346;2023-08-06T09:39:17;3.83;;;2.90;;
20623;SDS011;10471;42.736;23.346;2023-08-06T09:41:46;3.70;;;3.40;;
20623;SDS011;10471;42.736;23.346;2023-08-06T09:44:18;5.53;;;3.67;;
20623;SDS011;10471;42.736;23.346;2023-08-06T09:49:25;6.10;;;3.33;;
20623;SDS011;10471;42.736;23.346;2023-08-06T09:51:54;5.63;;;3.67;;
20623;SDS011;10471;42.736;23.346;2023-08-06T09:54:23;3.87;;;3.43;;
20623;SDS011;10471;42.736;23.346;2023-08-06T09:56:49;3.50;;;2.93;;
20623;SDS011;10471;42.736;23.346;2023-08-06T09:59:15;3.23;;;2.83;;
20623;SDS011;10471;42.736;23.346;2023-08-06T10:01:43;4.50;;;2.87;;
20623;SDS011;10471;42.736;23.346;2023-08-06T10:04:10;3.13;;;2.83;;
20623;SDS011;10471;42.736;23.346;2023-08-06T10:06:38;3.30;;;3.00;;
20623;SDS011;10471;42.736;23.346;2023-08-06T10:09:04;3.40;;;3.10;;
20623;SDS011;10471;42.736;23.346;2023-08-06T10:11:30;5.07;;;2.80;;
20623;SDS011;10471;42.736;23.346;2023-08-06T10:13:58;4.93;;;2.70;;
20623;SDS011;10471;42.736;23.346;2023-08-06T10:16:29;3.10;;;2.70;;
20623;SDS011;10471;42.736;23.346;2023-08-06T10:18:56;2.70;;;2.50;;
20623;SDS011;10471;42.736;23.346;2023-08-06T10:21:25;4.37;;;2.90;;
20623;SDS011;10471;42.736;23.346;2023-08-06T10:23:56;5.07;;;3.07;;
20623;SDS011;10471;42.736;23.346;2023-08-06T10:26:25;2.90;;;2.60;;
20623;SDS011;10471;42.736;23.346;2023-08-06T10:28:52;4.23;;;2.97;;
20623;SDS011;10471;42.736;23.346;2023-08-06T10:31:18;4.73;;;3.07;;
20623;SDS011;10471;42.736;23.346;2023-08-06T10:33:47;3.80;;;3.50;;
20623;SDS011;10471;42.736;23.346;2023-08-06T10:36:13;4.23;;;3.60;;
20623;SDS011;10471;42.736;23.346;2023-08-06T10:38:49;4.00;;;3.03;;
20623;SDS011;10471;42.736;23.346;2023-08-06T10:41:36;3.30;;;2.93;;
20623;SDS011;10471;42.736;23.346;2023-08-06T10:44:09;3.13;;;2.83;;
20623;SDS011;10471;42.736;23.346;2023-08-06T10:46:36;3.37;;;2.90;;
20623;SDS011;10471;42.736;23.346;2023-08-06T10:49:03;3.30;;;3.00;;
20623;SDS011;10471;42.736;23.346;2023-08-06T10:51:29;3.40;;;2.93;;
20623;SDS011;10471;42.736;23.346;2023-08-06T10:53:54;4.00;;;3.13;;
20623;SDS011;10471;42.736;23.346;2023-08-06T10:56:21;4.97;;;2.87;;
20623;SDS011;10471;42.736;23.346;2023-08-06T10:58:50;3.77;;;3.27;;
20623;SDS011;10471;42.736;23.346;2023-08-06T11:01:16;5.47;;;3.33;;
20623;SDS011;10471;42.736;23.346;2023-08-06T11:03:43;4.37;;;3.13;;
20623;SDS011;10471;42.736;23.346;2023-08-06T11:06:11;3.50;;;3.07;;
20623;SDS011;10471;42.736;23.346;2023-08-06T11:08:46;4.13;;;3.47;;
20623;SDS011;10471;42.736;23.346;2023-08-06T11:11:14;6.23;;;4.07;;
20623;SDS011;10471;42.736;23.346;2023-08-06T11:13:43;5.10;;;4.10;;
20623;SDS011;10471;42.736;23.346;2023-08-06T11:16:13;5.17;;;4.67;;
20623;SDS011;10471;42.736;23.346;2023-08-06T11:18:39;7.97;;;5.00;;
20623;SDS011;10471;42.736;23.346;2023-08-06T11:21:06;5.70;;;4.77;;
20623;SDS011;10471;42.736;23.346;2023-08-06T11:23:33;6.83;;;5.03;;
20623;SDS011;10471;42.736;23.346;2023-08-06T11:25:59;5.30;;;4.80;;
20623;SDS011;10471;42.736;23.346;2023-08-06T11:28:24;5.80;;;5.03;;
20623;SDS011;10471;42.736;23.346;2023-08-06T11:30:50;8.23;;;5.60;;
20623;SDS011;10471;42.736;23.346;2023-08-06T11:33:22;7.30;;;6.13;;
20623;SDS011;10471;42.736;23.346;2023-08-06T11:35:50;9.47;;;6.50;;
20623;SDS011;10471;42.736;23.346;2023-08-06T11:38:16;8.50;;;5.53;;
20623;SDS011;10471;42.736;23.346;2023-08-06T11:40:43;6.07;;;5.50;;
20623;SDS011;10471;42.736;23.346;2023-08-06T11:43:09;5.87;;;5.33;;
20623;SDS011;10471;42.736;23.346;2023-08-06T11:45:35;6.70;;;5.60;;
20623;SDS011;10471;42.736;23.346;2023-08-06T11:48:01;6.03;;;5.43;;
20623;SDS011;10471;42.736;23.346;2023-08-06T11:50:27;6.20;;;5.27;;
20623;SDS011;10471;42.736;23.346;2023-08-06T11:52:57;6.27;;;5.67;;
20623;SDS011;10471;42.736;23.346;2023-08-06T11:55:24;7.87;;;5.10;;
20623;SDS011;10471;42.736;23.346;2023-08-06T11:57:50;7.27;;;5.83;;
20623;SDS011;10471;42.736;23.346;2023-08-06T12:00:15;5.97;;;5.37;;
20623;SDS011;10471;42.736;23.346;2023-08-06T12:02:47;6.20;;;5.60;;
20623;SDS011;10471;42.736;23.346;2023-08-06T12:05:15;5.30;;;4.80;;
20623;SDS011;10471;42.736;23.346;2023-08-06T12:07:42;5.70;;;5.20;;
20623;SDS011;10471;42.736;23.346;2023-08-06T12:10:09;5.83;;;5.33;;
20623;SDS011;10471;42.736;23.346;2023-08-06T12:12:35;6.97;;;5.70;;
20623;SDS011;10471;42.736;23.346;2023-08-06T12:15:02;7.43;;;6.03;;
20623;SDS011;10471;42.736;23.346;2023-08-06T12:17:28;6.30;;;5.70;;
20623;SDS011;10471;42.736;23.346;2023-08-06T12:19:53;5.90;;;5.40;;
20623;SDS011;10471;42.736;23.346;2023-08-06T12:22:19;6.70;;;6.03;;
20623;SDS011;10471;42.736;23.346;2023-08-06T12:24:45;7.33;;;6.50;;
20623;SDS011;10471;42.736;23.346;2023-08-06T12:27:11;9.90;;;6.40;;
20623;SDS011;10471;42.736;23.346;2023-08-06T12:29:41;7.17;;;6.47;;
20623;SDS011;10471;42.736;23.346;2023-08-06T12:32:10;6.90;;;6.20;;
20623;SDS011;10471;42.736;23.346;2023-08-06T12:34:37;7.17;;;6.47;;
20623;SDS011;10471;42.736;23.346;2023-08-06T12:37:06;6.80;;;6.20;;
20623;SDS011;10471;42.736;23.346;2023-08-06T12:39:36;5.97;;;5.47;;
20623;SDS011;10471;42.736;23.346;2023-08-06T12:42:03;6.00;;;5.40;;
20623;SDS011;10471;42.736;23.346;2023-08-06T12:44:29;6.07;;;5.30;;
20623;SDS011;10471;42.736;23.346;2023-08-06T12:46:55;5.77;;;5.03;;
20623;SDS011;10471;42.736;23.346;2023-08-06T12:49:21;5.40;;;4.90;;
20623;SDS011;10471;42.736;23.346;2023-08-06T12:51:47;6.00;;;5.40;;
20623;SDS011;10471;42.736;23.346;2023-08-06T12:54:19;6.30;;;5.30;;
20623;SDS011;10471;42.736;23.346;2023-08-06T12:56:45;5.83;;;5.23;;
20623;SDS011;10471;42.736;23.346;2023-08-06T12:59:13;6.47;;;5.60;;
20623;SDS011;10471;42.736;23.346;2023-08-06T13:01:39;5.87;;;5.37;;
20623;SDS011;10471;42.736;23.346;2023-08-06T13:04:05;9.13;;;5.47;;
20623;SDS011;10471;42.736;23.346;2023-08-06T13:06:31;5.40;;;4.90;;
20623;SDS011;10471;42.736;23.346;2023-08-06T13:09:01;5.63;;;5.10;;
20623;SDS011;10471;42.736;23.346;2023-08-06T13:11:26;6.23;;;5.63;;
20623;SDS011;10471;42.736;23.346;2023-08-06T13:13:52;5.77;;;5.10;;
20623;SDS011;10471;42.736;23.346;2023-08-06T13:16:17;5.27;;;4.57;;
20623;SDS011;10471;42.736;23.346;2023-08-06T13:18:42;5.80;;;5.03;;
20623;SDS011;10471;42.736;23.346;2023-08-06T13:21:08;6.33;;;5.10;;
20623;SDS011;10471;42.736;23.346;2023-08-06T13:23:33;6.80;;;5.20;;
20623;SDS011;10471;42.736;23.346;2023-08-06T13:25:59;5.47;;;5.00;;
20623;SDS011;10471;42.736;23.346;2023-08-06T13:28:24;5.10;;;4.50;;
20623;SDS011;10471;42.736;23.346;2023-08-06T13:30:49;7.23;;;5.27;;
20623;SDS011;10471;42.736;23.346;2023-08-06T13:33:15;6.37;;;4.97;;
20623;SDS011;10471;42.736;23.346;2023-08-06T13:35:41;7.33;;;5.53;;
20623;SDS011;10471;42.736;23.346;2023-08-06T13:38:06;6.80;;;4.87;;
20623;SDS011;10471;42.736;23.346;2023-08-06T13:40:32;5.60;;;5.10;;
20623;SDS011;10471;42.736;23.346;2023-08-06T13:42:58;8.07;;;5.00;;
20623;SDS011;10471;42.736;23.346;2023-08-06T13:45:24;8.07;;;5.43;;
20623;SDS011;10471;42.736;23.346;2023-08-06T13:47:49;5.93;;;5.07;;
20623;SDS011;10471;42.736;23.346;2023-08-06T13:50:15;5.43;;;4.93;;
20623;SDS011;10471;42.736;23.346;2023-08-06T13:52:40;6.10;;;4.80;;
20623;SDS011;10471;42.736;23.346;2023-08-06T13:55:06;6.77;;;4.80;;
20623;SDS011;10471;42.736;23.346;2023-08-06T13:57:32;6.73;;;4.63;;
20623;SDS011;10471;42.736;23.346;2023-08-06T13:59:59;5.13;;;4.63;;
20623;SDS011;10471;42.736;23.346;2023-08-06T14:02:24;5.93;;;4.40;;
20623;SDS011;10471;42.736;23.346;2023-08-06T14:04:51;4.80;;;4.30;;
20623;SDS011;10471;42.736;23.346;2023-08-06T14:07:17;7.20;;;4.73;;
20623;SDS011;10471;42.736;23.346;2023-08-06T14:09:42;7.73;;;4.57;;
20623;SDS011;10471;42.736;23.346;2023-08-06T14:12:09;5.50;;;4.63;;
20623;SDS011;10471;42.736;23.346;2023-08-06T14:14:34;7.80;;;4.80;;
20623;SDS011;10471;42.736;23.346;2023-08-06T14:17:00;4.80;;;4.23;;
20623;SDS011;10471;42.736;23.346;2023-08-06T14:19:26;5.30;;;4.80;;
20623;SDS011;10471;42.736;23.346;2023-08-06T14:21:51;4.53;;;4.13;;
20623;SDS011;10471;42.736;23.346;2023-08-06T14:24:17;5.10;;;4.60;;
20623;SDS011;10471;42.736;23.346;2023-08-06T14:26:42;5.10;;;4.30;;
20623;SDS011;10471;42.736;23.346;2023-08-06T14:29:08;4.07;;;3.67;;
20623;SDS011;10471;42.736;23.346;2023-08-06T14:31:33;5.87;;;3.67;;
20623;SDS011;10471;42.736;23.346;2023-08-06T14:33:59;6.03;;;4.13;;
20623;SDS011;10471;42.736;23.346;2023-08-06T14:36:25;6.33;;;4.13;;
20623;SDS011;10471;42.736;23.346;2023-08-06T14:38:51;6.50;;;4.50;;